Terminal Aerodrome Forecast
Issued by NWS

Current Version | Previous Version | Graphics & Text | Print | Product List | Glossary On
Versions: 1 2 3 4 5 6 7 8 9 10 11 12 13 14 15 16 17 18 19 20 21 22 23 24 25 26 27 28 29 30 31 32
000
FTUS41 KRNK 171256 AAA
TAFLWB
TAF AMD
KLWB 171256Z 1713/1812 03004KT P6SM SCT005 BKN035
      TEMPO 1713/1715 BKN025
     FM171800 23003KT P6SM BKN040
     FM180000 00000KT P6SM SCT035
     FM180700 00000KT 2SM BR SCT005
     FM181000 00000KT 1/4SM FG OVC001=

USA.gov is the U.S. government's official web portal to all federal, state and local government web resources and services.